sensor_id;sensor_type;location;lat;lon;timestamp;P1;durP1;ratioP1;P2;durP2;ratioP2
43883;SDS011;29544;52.018;5.810;2023-04-06T00:01:12;5.33;;;2.10;;
43883;SDS011;29544;52.018;5.810;2023-04-06T00:03:37;2.73;;;1.97;;
43883;SDS011;29544;52.018;5.810;2023-04-06T00:06:03;3.63;;;1.97;;
43883;SDS011;29544;52.018;5.810;2023-04-06T00:08:29;3.28;;;1.80;;
43883;SDS011;29544;52.018;5.810;2023-04-06T00:10:55;4.07;;;1.88;;
43883;SDS011;29544;52.018;5.810;2023-04-06T00:13:20;2.90;;;1.73;;
43883;SDS011;29544;52.018;5.810;2023-04-06T00:15:46;3.73;;;2.10;;
43883;SDS011;29544;52.018;5.810;2023-04-06T00:18:12;3.50;;;2.10;;
43883;SDS011;29544;52.018;5.810;2023-04-06T00:20:37;2.60;;;1.67;;
43883;SDS011;29544;52.018;5.810;2023-04-06T00:23:03;3.63;;;2.00;;
43883;SDS011;29544;52.018;5.810;2023-04-06T00:25:28;5.03;;;2.27;;
43883;SDS011;29544;52.018;5.810;2023-04-06T00:27:54;4.10;;;2.27;;
43883;SDS011;29544;52.018;5.810;2023-04-06T00:30:20;3.07;;;2.10;;
43883;SDS011;29544;52.018;5.810;2023-04-06T00:32:45;3.30;;;2.13;;
43883;SDS011;29544;52.018;5.810;2023-04-06T00:35:11;3.23;;;1.93;;
43883;SDS011;29544;52.018;5.810;2023-04-06T00:37:36;3.37;;;2.03;;
43883;SDS011;29544;52.018;5.810;2023-04-06T00:40:02;3.27;;;2.10;;
43883;SDS011;29544;52.018;5.810;2023-04-06T00:42:28;2.97;;;2.00;;
43883;SDS011;29544;52.018;5.810;2023-04-06T00:44:57;4.47;;;2.13;;
43883;SDS011;29544;52.018;5.810;2023-04-06T00:47:24;3.63;;;2.03;;
43883;SDS011;29544;52.018;5.810;2023-04-06T00:49:51;2.78;;;1.80;;
43883;SDS011;29544;52.018;5.810;2023-04-06T00:52:17;3.33;;;1.80;;
43883;SDS011;29544;52.018;5.810;2023-04-06T00:54:43;3.20;;;1.87;;
43883;SDS011;29544;52.018;5.810;2023-04-06T00:57:09;4.38;;;1.88;;
43883;SDS011;29544;52.018;5.810;2023-04-06T00:59:38;3.42;;;2.00;;
43883;SDS011;29544;52.018;5.810;2023-04-06T01:02:04;3.40;;;1.75;;
43883;SDS011;29544;52.018;5.810;2023-04-06T01:04:30;4.90;;;2.07;;
43883;SDS011;29544;52.018;5.810;2023-04-06T01:06:56;2.35;;;1.60;;
43883;SDS011;29544;52.018;5.810;2023-04-06T01:09:21;5.53;;;2.10;;
43883;SDS011;29544;52.018;5.810;2023-04-06T01:11:47;2.80;;;1.83;;
43883;SDS011;29544;52.018;5.810;2023-04-06T01:14:13;3.00;;;2.00;;
43883;SDS011;29544;52.018;5.810;2023-04-06T01:16:38;4.00;;;2.13;;
43883;SDS011;29544;52.018;5.810;2023-04-06T01:19:08;3.40;;;2.17;;
43883;SDS011;29544;52.018;5.810;2023-04-06T01:21:34;2.40;;;1.70;;
43883;SDS011;29544;52.018;5.810;2023-04-06T01:24:01;3.08;;;1.63;;
43883;SDS011;29544;52.018;5.810;2023-04-06T01:26:26;4.40;;;2.03;;
43883;SDS011;29544;52.018;5.810;2023-04-06T01:28:54;3.25;;;1.90;;
43883;SDS011;29544;52.018;5.810;2023-04-06T01:31:20;3.10;;;1.97;;
43883;SDS011;29544;52.018;5.810;2023-04-06T01:33:46;3.33;;;1.73;;
43883;SDS011;29544;52.018;5.810;2023-04-06T01:36:11;2.47;;;1.70;;
43883;SDS011;29544;52.018;5.810;2023-04-06T01:38:37;3.17;;;1.83;;
43883;SDS011;29544;52.018;5.810;2023-04-06T01:41:03;2.37;;;1.57;;
43883;SDS011;29544;52.018;5.810;2023-04-06T01:43:28;4.23;;;1.80;;
43883;SDS011;29544;52.018;5.810;2023-04-06T01:45:54;2.70;;;1.48;;
43883;SDS011;29544;52.018;5.810;2023-04-06T01:48:20;2.90;;;1.75;;
43883;SDS011;29544;52.018;5.810;2023-04-06T01:50:45;2.80;;;1.80;;
43883;SDS011;29544;52.018;5.810;2023-04-06T01:53:11;2.40;;;1.53;;
43883;SDS011;29544;52.018;5.810;2023-04-06T01:55:36;2.70;;;1.60;;
43883;SDS011;29544;52.018;5.810;2023-04-06T01:58:02;2.00;;;1.50;;
43883;SDS011;29544;52.018;5.810;2023-04-06T02:00:28;3.67;;;2.17;;
43883;SDS011;29544;52.018;5.810;2023-04-06T02:02:53;3.00;;;1.70;;
43883;SDS011;29544;52.018;5.810;2023-04-06T02:05:19;3.77;;;1.90;;
43883;SDS011;29544;52.018;5.810;2023-04-06T02:07:45;3.93;;;2.20;;
43883;SDS011;29544;52.018;5.810;2023-04-06T02:10:11;4.78;;;2.00;;
43883;SDS011;29544;52.018;5.810;2023-04-06T02:12:38;3.78;;;1.73;;
43883;SDS011;29544;52.018;5.810;2023-04-06T02:15:03;2.63;;;1.80;;
43883;SDS011;29544;52.018;5.810;2023-04-06T02:17:29;2.93;;;1.73;;
43883;SDS011;29544;52.018;5.810;2023-04-06T02:19:55;2.57;;;1.60;;
43883;SDS011;29544;52.018;5.810;2023-04-06T02:22:20;2.40;;;1.70;;
43883;SDS011;29544;52.018;5.810;2023-04-06T02:24:46;3.97;;;2.00;;
43883;SDS011;29544;52.018;5.810;2023-04-06T02:27:11;2.27;;;1.53;;
43883;SDS011;29544;52.018;5.810;2023-04-06T02:29:38;2.95;;;1.80;;
43883;SDS011;29544;52.018;5.810;2023-04-06T02:32:04;2.67;;;1.47;;
43883;SDS011;29544;52.018;5.810;2023-04-06T02:34:30;3.33;;;1.83;;
43883;SDS011;29544;52.018;5.810;2023-04-06T02:36:55;2.60;;;1.67;;
43883;SDS011;29544;52.018;5.810;2023-04-06T02:39:21;3.67;;;1.87;;
43883;SDS011;29544;52.018;5.810;2023-04-06T02:41:46;2.33;;;1.53;;
43883;SDS011;29544;52.018;5.810;2023-04-06T02:44:12;3.27;;;2.10;;
43883;SDS011;29544;52.018;5.810;2023-04-06T02:46:37;2.47;;;1.77;;
43883;SDS011;29544;52.018;5.810;2023-04-06T02:49:03;2.47;;;1.60;;
43883;SDS011;29544;52.018;5.810;2023-04-06T02:51:28;4.27;;;1.63;;
43883;SDS011;29544;52.018;5.810;2023-04-06T02:53:54;3.57;;;1.63;;
43883;SDS011;29544;52.018;5.810;2023-04-06T02:56:19;2.53;;;1.77;;
43883;SDS011;29544;52.018;5.810;2023-04-06T02:58:46;2.53;;;1.58;;
43883;SDS011;29544;52.018;5.810;2023-04-06T03:01:12;2.87;;;1.53;;
43883;SDS011;29544;52.018;5.810;2023-04-06T03:03:37;2.50;;;1.63;;
43883;SDS011;29544;52.018;5.810;2023-04-06T03:06:03;3.17;;;1.63;;
43883;SDS011;29544;52.018;5.810;2023-04-06T03:08:28;2.70;;;1.63;;
43883;SDS011;29544;52.018;5.810;2023-04-06T03:10:54;2.30;;;1.57;;
43883;SDS011;29544;52.018;5.810;2023-04-06T03:13:20;2.77;;;1.70;;
43883;SDS011;29544;52.018;5.810;2023-04-06T03:15:46;3.03;;;1.60;;
43883;SDS011;29544;52.018;5.810;2023-04-06T03:18:11;2.43;;;1.50;;
43883;SDS011;29544;52.018;5.810;2023-04-06T03:20:37;2.07;;;1.50;;
43883;SDS011;29544;52.018;5.810;2023-04-06T03:23:03;1.97;;;1.60;;
43883;SDS011;29544;52.018;5.810;2023-04-06T03:25:28;2.13;;;1.63;;
43883;SDS011;29544;52.018;5.810;2023-04-06T03:27:55;2.75;;;1.73;;
43883;SDS011;29544;52.018;5.810;2023-04-06T03:30:20;2.27;;;1.50;;
43883;SDS011;29544;52.018;5.810;2023-04-06T03:32:46;2.30;;;1.60;;
43883;SDS011;29544;52.018;5.810;2023-04-06T03:35:12;2.40;;;1.60;;
43883;SDS011;29544;52.018;5.810;2023-04-06T03:37:37;2.20;;;1.63;;
43883;SDS011;29544;52.018;5.810;2023-04-06T03:40:03;2.80;;;1.83;;
43883;SDS011;29544;52.018;5.810;2023-04-06T03:42:29;2.95;;;1.77;;
43883;SDS011;29544;52.018;5.810;2023-04-06T03:44:55;2.50;;;1.90;;
43883;SDS011;29544;52.018;5.810;2023-04-06T03:47:21;2.70;;;1.83;;
43883;SDS011;29544;52.018;5.810;2023-04-06T03:49:47;3.03;;;1.90;;
43883;SDS011;29544;52.018;5.810;2023-04-06T03:52:12;3.40;;;1.77;;
43883;SDS011;29544;52.018;5.810;2023-04-06T03:54:38;2.63;;;1.77;;
43883;SDS011;29544;52.018;5.810;2023-04-06T03:57:04;3.70;;;2.13;;
43883;SDS011;29544;52.018;5.810;2023-04-06T03:59:29;2.55;;;1.90;;
43883;SDS011;29544;52.018;5.810;2023-04-06T04:01:55;2.93;;;1.90;;
43883;SDS011;29544;52.018;5.810;2023-04-06T04:04:20;2.13;;;1.60;;
43883;SDS011;29544;52.018;5.810;2023-04-06T04:06:46;2.33;;;1.57;;
43883;SDS011;29544;52.018;5.810;2023-04-06T04:09:12;2.90;;;1.73;;
43883;SDS011;29544;52.018;5.810;2023-04-06T04:11:37;2.37;;;1.63;;
43883;SDS011;29544;52.018;5.810;2023-04-06T04:14:03;2.33;;;1.50;;
43883;SDS011;29544;52.018;5.810;2023-04-06T04:16:28;2.60;;;1.73;;
43883;SDS011;29544;52.018;5.810;2023-04-06T04:18:54;2.60;;;1.57;;
43883;SDS011;29544;52.018;5.810;2023-04-06T04:21:20;2.23;;;1.50;;
43883;SDS011;29544;52.018;5.810;2023-04-06T04:23:45;3.57;;;2.13;;
43883;SDS011;29544;52.018;5.810;2023-04-06T04:26:11;3.93;;;1.83;;
43883;SDS011;29544;52.018;5.810;2023-04-06T04:28:37;2.97;;;1.90;;
43883;SDS011;29544;52.018;5.810;2023-04-06T04:31:02;3.17;;;1.77;;
43883;SDS011;29544;52.018;5.810;2023-04-06T04:33:27;2.87;;;1.97;;
43883;SDS011;29544;52.018;5.810;2023-04-06T04:35:53;3.07;;;1.83;;
43883;SDS011;29544;52.018;5.810;2023-04-06T04:38:19;3.97;;;1.70;;
43883;SDS011;29544;52.018;5.810;2023-04-06T04:40:44;3.27;;;2.03;;
43883;SDS011;29544;52.018;5.810;2023-04-06T04:43:10;3.73;;;2.37;;
43883;SDS011;29544;52.018;5.810;2023-04-06T04:45:35;2.97;;;2.03;;
43883;SDS011;29544;52.018;5.810;2023-04-06T04:48:01;2.27;;;1.60;;
43883;SDS011;29544;52.018;5.810;2023-04-06T04:50:26;2.57;;;1.70;;
43883;SDS011;29544;52.018;5.810;2023-04-06T04:52:52;4.47;;;2.23;;
43883;SDS011;29544;52.018;5.810;2023-04-06T04:55:17;2.50;;;1.70;;
43883;SDS011;29544;52.018;5.810;2023-04-06T04:57:43;3.17;;;1.97;;
43883;SDS011;29544;52.018;5.810;2023-04-06T05:00:08;2.90;;;2.00;;
43883;SDS011;29544;52.018;5.810;2023-04-06T05:02:35;3.75;;;2.08;;
43883;SDS011;29544;52.018;5.810;2023-04-06T05:05:00;4.60;;;2.17;;
43883;SDS011;29544;52.018;5.810;2023-04-06T05:07:26;2.83;;;2.00;;
43883;SDS011;29544;52.018;5.810;2023-04-06T05:09:51;3.20;;;2.10;;
43883;SDS011;29544;52.018;5.810;2023-04-06T05:12:17;3.20;;;1.73;;
43883;SDS011;29544;52.018;5.810;2023-04-06T05:14:43;3.05;;;1.83;;
43883;SDS011;29544;52.018;5.810;2023-04-06T05:17:09;3.50;;;1.80;;
43883;SDS011;29544;52.018;5.810;2023-04-06T05:19:35;2.73;;;2.00;;
43883;SDS011;29544;52.018;5.810;2023-04-06T05:22:00;4.03;;;1.93;;
43883;SDS011;29544;52.018;5.810;2023-04-06T05:24:26;3.00;;;2.00;;
43883;SDS011;29544;52.018;5.810;2023-04-06T05:26:51;3.23;;;2.10;;
43883;SDS011;29544;52.018;5.810;2023-04-06T05:29:17;3.00;;;2.07;;
43883;SDS011;29544;52.018;5.810;2023-04-06T05:31:45;3.22;;;2.10;;
43883;SDS011;29544;52.018;5.810;2023-04-06T05:34:10;4.00;;;2.07;;
43883;SDS011;29544;52.018;5.810;2023-04-06T05:36:37;3.22;;;2.40;;
43883;SDS011;29544;52.018;5.810;2023-04-06T05:39:03;5.30;;;2.73;;
43883;SDS011;29544;52.018;5.810;2023-04-06T05:41:28;3.73;;;2.17;;
43883;SDS011;29544;52.018;5.810;2023-04-06T05:43:54;3.27;;;2.27;;
43883;SDS011;29544;52.018;5.810;2023-04-06T05:46:20;3.50;;;2.20;;
43883;SDS011;29544;52.018;5.810;2023-04-06T05:48:45;4.03;;;2.40;;
43883;SDS011;29544;52.018;5.810;2023-04-06T05:51:11;3.90;;;2.20;;
43883;SDS011;29544;52.018;5.810;2023-04-06T05:53:36;3.77;;;2.30;;
43883;SDS011;29544;52.018;5.810;2023-04-06T05:56:02;4.70;;;2.47;;
43883;SDS011;29544;52.018;5.810;2023-04-06T05:58:28;5.07;;;2.42;;
43883;SDS011;29544;52.018;5.810;2023-04-06T06:00:58;4.22;;;2.58;;
43883;SDS011;29544;52.018;5.810;2023-04-06T06:03:24;3.72;;;2.13;;
43883;SDS011;29544;52.018;5.810;2023-04-06T06:05:50;3.77;;;2.40;;
43883;SDS011;29544;52.018;5.810;2023-04-06T06:08:16;4.23;;;2.67;;
43883;SDS011;29544;52.018;5.810;2023-04-06T06:10:41;5.17;;;2.50;;
43883;SDS011;29544;52.018;5.810;2023-04-06T06:13:07;4.05;;;2.58;;
43883;SDS011;29544;52.018;5.810;2023-04-06T06:15:33;3.83;;;2.53;;
43883;SDS011;29544;52.018;5.810;2023-04-06T06:17:59;4.90;;;2.60;;
43883;SDS011;29544;52.018;5.810;2023-04-06T06:20:25;4.22;;;2.50;;
43883;SDS011;29544;52.018;5.810;2023-04-06T06:22:51;5.10;;;2.67;;
43883;SDS011;29544;52.018;5.810;2023-04-06T06:25:17;4.20;;;2.47;;
43883;SDS011;29544;52.018;5.810;2023-04-06T06:27:42;4.43;;;2.87;;
43883;SDS011;29544;52.018;5.810;2023-04-06T06:30:08;4.70;;;3.03;;
43883;SDS011;29544;52.018;5.810;2023-04-06T06:32:34;4.57;;;3.05;;
43883;SDS011;29544;52.018;5.810;2023-04-06T06:35:00;4.00;;;2.83;;
43883;SDS011;29544;52.018;5.810;2023-04-06T06:37:25;4.93;;;2.90;;
43883;SDS011;29544;52.018;5.810;2023-04-06T06:39:51;4.83;;;2.90;;
43883;SDS011;29544;52.018;5.810;2023-04-06T06:42:16;4.93;;;2.80;;
43883;SDS011;29544;52.018;5.810;2023-04-06T06:44:42;5.70;;;3.00;;
43883;SDS011;29544;52.018;5.810;2023-04-06T06:47:07;3.80;;;2.80;;
43883;SDS011;29544;52.018;5.810;2023-04-06T06:49:33;3.87;;;2.80;;
43883;SDS011;29544;52.018;5.810;2023-04-06T06:51:58;3.93;;;2.50;;
43883;SDS011;29544;52.018;5.810;2023-04-06T06:54:24;6.00;;;3.30;;
43883;SDS011;29544;52.018;5.810;2023-04-06T06:56:49;5.17;;;3.30;;
43883;SDS011;29544;52.018;5.810;2023-04-06T06:59:15;8.67;;;3.17;;
43883;SDS011;29544;52.018;5.810;2023-04-06T07:01:41;11.23;;;3.75;;
43883;SDS011;29544;52.018;5.810;2023-04-06T07:04:07;5.00;;;3.20;;
43883;SDS011;29544;52.018;5.810;2023-04-06T07:06:34;12.23;;;3.83;;
43883;SDS011;29544;52.018;5.810;2023-04-06T07:09:00;6.93;;;4.07;;
43883;SDS011;29544;52.018;5.810;2023-04-06T07:11:27;7.50;;;3.67;;
43883;SDS011;29544;52.018;5.810;2023-04-06T07:13:53;7.33;;;3.43;;
43883;SDS011;29544;52.018;5.810;2023-04-06T07:16:19;7.47;;;3.57;;
43883;SDS011;29544;52.018;5.810;2023-04-06T07:18:45;10.37;;;3.77;;
43883;SDS011;29544;52.018;5.810;2023-04-06T07:21:10;8.90;;;3.90;;
43883;SDS011;29544;52.018;5.810;2023-04-06T07:23:36;10.10;;;4.10;;
43883;SDS011;29544;52.018;5.810;2023-04-06T07:26:01;5.73;;;3.60;;
43883;SDS011;29544;52.018;5.810;2023-04-06T07:28:27;6.63;;;3.40;;
43883;SDS011;29544;52.018;5.810;2023-04-06T07:30:53;4.97;;;3.60;;
43883;SDS011;29544;52.018;5.810;2023-04-06T07:33:19;8.32;;;3.90;;
43883;SDS011;29544;52.018;5.810;2023-04-06T07:35:45;6.80;;;4.07;;
43883;SDS011;29544;52.018;5.810;2023-04-06T07:38:10;7.30;;;3.83;;
43883;SDS011;29544;52.018;5.810;2023-04-06T07:40:36;8.93;;;4.10;;
43883;SDS011;29544;52.018;5.810;2023-04-06T07:43:02;7.15;;;3.78;;
43883;SDS011;29544;52.018;5.810;2023-04-06T07:45:27;9.87;;;4.70;;
43883;SDS011;29544;52.018;5.810;2023-04-06T07:47:53;9.03;;;4.07;;
43883;SDS011;29544;52.018;5.810;2023-04-06T07:50:19;7.43;;;3.63;;
43883;SDS011;29544;52.018;5.810;2023-04-06T07:52:44;7.10;;;3.93;;
43883;SDS011;29544;52.018;5.810;2023-04-06T07:55:10;7.40;;;4.20;;
43883;SDS011;29544;52.018;5.810;2023-04-06T07:57:35;7.23;;;4.33;;
43883;SDS011;29544;52.018;5.810;2023-04-06T08:00:01;6.90;;;4.03;;
43883;SDS011;29544;52.018;5.810;2023-04-06T08:02:28;8.63;;;4.22;;
43883;SDS011;29544;52.018;5.810;2023-04-06T08:04:54;8.33;;;4.50;;
43883;SDS011;29544;52.018;5.810;2023-04-06T08:07:20;8.03;;;5.27;;
43883;SDS011;29544;52.018;5.810;2023-04-06T08:09:45;7.00;;;4.90;;
43883;SDS011;29544;52.018;5.810;2023-04-06T08:12:11;8.03;;;5.13;;
43883;SDS011;29544;52.018;5.810;2023-04-06T08:14:36;5.80;;;4.20;;
43883;SDS011;29544;52.018;5.810;2023-04-06T08:17:02;8.83;;;4.63;;
43883;SDS011;29544;52.018;5.810;2023-04-06T08:19:27;5.70;;;4.17;;
43883;SDS011;29544;52.018;5.810;2023-04-06T08:21:53;6.97;;;3.90;;
43883;SDS011;29544;52.018;5.810;2023-04-06T08:24:18;5.53;;;3.60;;
43883;SDS011;29544;52.018;5.810;2023-04-06T08:26:44;10.17;;;4.03;;
43883;SDS011;29544;52.018;5.810;2023-04-06T08:29:09;6.37;;;4.20;;
43883;SDS011;29544;52.018;5.810;2023-04-06T08:31:36;5.43;;;3.72;;
43883;SDS011;29544;52.018;5.810;2023-04-06T08:34:03;6.27;;;3.77;;
43883;SDS011;29544;52.018;5.810;2023-04-06T08:36:29;7.75;;;4.10;;
43883;SDS011;29544;52.018;5.810;2023-04-06T08:38:55;5.28;;;4.00;;
43883;SDS011;29544;52.018;5.810;2023-04-06T08:41:21;8.70;;;4.40;;
43883;SDS011;29544;52.018;5.810;2023-04-06T08:43:47;7.30;;;4.60;;
43883;SDS011;29544;52.018;5.810;2023-04-06T08:46:14;6.38;;;4.53;;
43883;SDS011;29544;52.018;5.810;2023-04-06T08:48:41;6.80;;;4.10;;
43883;SDS011;29544;52.018;5.810;2023-04-06T08:51:08;7.18;;;3.80;;
43883;SDS011;29544;52.018;5.810;2023-04-06T08:55:59;6.60;;;3.97;;
43883;SDS011;29544;52.018;5.810;2023-04-06T08:58:26;7.47;;;4.45;;
43883;SDS011;29544;52.018;5.810;2023-04-06T09:00:53;5.55;;;3.92;;
43883;SDS011;29544;52.018;5.810;2023-04-06T09:03:19;5.97;;;3.70;;
43883;SDS011;29544;52.018;5.810;2023-04-06T09:05:46;5.53;;;4.15;;
43883;SDS011;29544;52.018;5.810;2023-04-06T09:08:12;6.23;;;3.50;;
43883;SDS011;29544;52.018;5.810;2023-04-06T09:10:40;5.70;;;3.80;;
43883;SDS011;29544;52.018;5.810;2023-04-06T09:13:06;8.23;;;3.80;;
43883;SDS011;29544;52.018;5.810;2023-04-06T09:15:33;9.38;;;4.30;;
43883;SDS011;29544;52.018;5.810;2023-04-06T09:17:59;5.40;;;3.65;;
43883;SDS011;29544;52.018;5.810;2023-04-06T09:20:25;7.17;;;3.90;;
43883;SDS011;29544;52.018;5.810;2023-04-06T09:22:53;7.07;;;3.92;;
43883;SDS011;29544;52.018;5.810;2023-04-06T09:25:20;6.55;;;3.97;;
43883;SDS011;29544;52.018;5.810;2023-04-06T09:27:48;8.13;;;5.18;;
43883;SDS011;29544;52.018;5.810;2023-04-06T09:30:22;9.20;;;4.35;;
43883;SDS011;29544;52.018;5.810;2023-04-06T09:32:50;6.70;;;4.45;;
43883;SDS011;29544;52.018;5.810;2023-04-06T09:35:21;6.43;;;4.45;;
43883;SDS011;29544;52.018;5.810;2023-04-06T09:37:47;6.57;;;4.60;;
43883;SDS011;29544;52.018;5.810;2023-04-06T09:40:15;6.07;;;4.30;;
43883;SDS011;29544;52.018;5.810;2023-04-06T09:42:42;6.25;;;4.22;;
43883;SDS011;29544;52.018;5.810;2023-04-06T09:45:11;8.23;;;4.15;;
43883;SDS011;29544;52.018;5.810;2023-04-06T09:47:38;7.05;;;4.22;;
43883;SDS011;29544;52.018;5.810;2023-04-06T09:50:07;7.03;;;4.43;;
43883;SDS011;29544;52.018;5.810;2023-04-06T09:52:37;6.72;;;4.45;;
43883;SDS011;29544;52.018;5.810;2023-04-06T09:55:06;5.68;;;3.92;;
43883;SDS011;29544;52.018;5.810;2023-04-06T09:57:49;5.53;;;3.63;;
43883;SDS011;29544;52.018;5.810;2023-04-06T10:00:21;5.82;;;3.78;;
43883;SDS011;29544;52.018;5.810;2023-04-06T10:05:27;5.35;;;3.60;;
43883;SDS011;29544;52.018;5.810;2023-04-06T10:08:11;7.38;;;4.70;;
43883;SDS011;29544;52.018;5.810;2023-04-06T10:10:38;8.80;;;4.50;;
43883;SDS011;29544;52.018;5.810;2023-04-06T10:13:04;5.70;;;4.03;;
43883;SDS011;29544;52.018;5.810;2023-04-06T10:15:30;7.10;;;4.43;;
43883;SDS011;29544;52.018;5.810;2023-04-06T10:17:56;6.95;;;4.60;;
43883;SDS011;29544;52.018;5.810;2023-04-06T10:20:28;7.60;;;5.15;;
43883;SDS011;29544;52.018;5.810;2023-04-06T10:25:55;7.00;;;4.85;;
43883;SDS011;29544;52.018;5.810;2023-04-06T10:28:21;7.35;;;4.20;;
43883;SDS011;29544;52.018;5.810;2023-04-06T10:30:47;6.90;;;5.07;;
43883;SDS011;29544;52.018;5.810;2023-04-06T10:33:13;11.20;;;5.50;;
43883;SDS011;29544;52.018;5.810;2023-04-06T10:35:40;7.60;;;4.63;;
43883;SDS011;29544;52.018;5.810;2023-04-06T10:38:06;8.63;;;5.40;;
43883;SDS011;29544;52.018;5.810;2023-04-06T10:40:34;8.27;;;4.95;;
43883;SDS011;29544;52.018;5.810;2023-04-06T10:43:11;8.00;;;4.40;;
43883;SDS011;29544;52.018;5.810;2023-04-06T10:45:38;6.53;;;4.45;;
43883;SDS011;29544;52.018;5.810;2023-04-06T10:50:41;8.45;;;5.13;;
43883;SDS011;29544;52.018;5.810;2023-04-06T10:53:20;7.13;;;4.20;;
43883;SDS011;29544;52.018;5.810;2023-04-06T10:55:50;8.85;;;4.93;;
43883;SDS011;29544;52.018;5.810;2023-04-06T10:58:16;7.07;;;4.47;;
43883;SDS011;29544;52.018;5.810;2023-04-06T11:00:45;8.07;;;4.53;;
43883;SDS011;29544;52.018;5.810;2023-04-06T11:03:12;6.70;;;3.83;;
43883;SDS011;29544;52.018;5.810;2023-04-06T11:05:38;24.95;;;4.82;;
43883;SDS011;29544;52.018;5.810;2023-04-06T11:08:08;6.45;;;3.75;;
43883;SDS011;29544;52.018;5.810;2023-04-06T11:10:33;8.87;;;4.10;;
43883;SDS011;29544;52.018;5.810;2023-04-06T11:12:59;7.33;;;3.53;;
43883;SDS011;29544;52.018;5.810;2023-04-06T11:15:24;6.93;;;4.00;;
43883;SDS011;29544;52.018;5.810;2023-04-06T11:17:50;6.73;;;3.67;;
43883;SDS011;29544;52.018;5.810;2023-04-06T11:20:15;9.40;;;3.97;;
43883;SDS011;29544;52.018;5.810;2023-04-06T11:22:49;5.72;;;3.65;;
43883;SDS011;29544;52.018;5.810;2023-04-06T11:25:15;5.47;;;3.30;;
43883;SDS011;29544;52.018;5.810;2023-04-06T11:27:42;5.60;;;3.40;;
43883;SDS011;29544;52.018;5.810;2023-04-06T11:30:09;5.60;;;3.28;;
43883;SDS011;29544;52.018;5.810;2023-04-06T11:32:41;5.75;;;3.33;;
43883;SDS011;29544;52.018;5.810;2023-04-06T11:35:11;6.13;;;3.50;;
43883;SDS011;29544;52.018;5.810;2023-04-06T11:37:47;7.85;;;3.00;;
43883;SDS011;29544;52.018;5.810;2023-04-06T11:40:20;4.75;;;2.40;;
43883;SDS011;29544;52.018;5.810;2023-04-06T11:42:53;7.05;;;2.60;;
43883;SDS011;29544;52.018;5.810;2023-04-06T11:45:20;11.25;;;3.22;;
43883;SDS011;29544;52.018;5.810;2023-04-06T11:47:54;7.77;;;3.00;;
43883;SDS011;29544;52.018;5.810;2023-04-06T11:50:25;5.90;;;3.05;;
43883;SDS011;29544;52.018;5.810;2023-04-06T11:53:00;6.85;;;2.50;;
43883;SDS011;29544;52.018;5.810;2023-04-06T11:55:26;3.60;;;2.38;;
43883;SDS011;29544;52.018;5.810;2023-04-06T11:57:52;10.60;;;2.90;;
43883;SDS011;29544;52.018;5.810;2023-04-06T12:00:17;5.80;;;2.40;;
43883;SDS011;29544;52.018;5.810;2023-04-06T12:02:49;7.17;;;3.30;;
43883;SDS011;29544;52.018;5.810;2023-04-06T12:05:15;4.50;;;2.50;;
43883;SDS011;29544;52.018;5.810;2023-04-06T12:07:41;4.57;;;2.57;;
43883;SDS011;29544;52.018;5.810;2023-04-06T12:10:06;6.07;;;2.27;;
43883;SDS011;29544;52.018;5.810;2023-04-06T12:12:32;5.35;;;2.55;;
43883;SDS011;29544;52.018;5.810;2023-04-06T12:14:58;5.00;;;2.30;;
43883;SDS011;29544;52.018;5.810;2023-04-06T12:17:24;7.90;;;3.47;;
43883;SDS011;29544;52.018;5.810;2023-04-06T12:19:50;15.50;;;8.27;;
43883;SDS011;29544;52.018;5.810;2023-04-06T12:22:15;28.37;;;14.30;;
43883;SDS011;29544;52.018;5.810;2023-04-06T12:27:07;25.73;;;14.90;;
43883;SDS011;29544;52.018;5.810;2023-04-06T12:29:33;26.02;;;14.48;;
43883;SDS011;29544;52.018;5.810;2023-04-06T12:31:59;33.33;;;15.00;;
43883;SDS011;29544;52.018;5.810;2023-04-06T12:34:26;26.83;;;13.10;;
43883;SDS011;29544;52.018;5.810;2023-04-06T12:36:51;27.17;;;12.63;;
43883;SDS011;29544;52.018;5.810;2023-04-06T12:39:18;20.17;;;10.77;;
43883;SDS011;29544;52.018;5.810;2023-04-06T12:41:43;21.25;;;9.95;;
43883;SDS011;29544;52.018;5.810;2023-04-06T12:44:09;22.97;;;9.27;;
43883;SDS011;29544;52.018;5.810;2023-04-06T12:49:01;19.48;;;8.77;;
43883;SDS011;29544;52.018;5.810;2023-04-06T12:51:28;20.95;;;8.98;;
43883;SDS011;29544;52.018;5.810;2023-04-06T12:53:53;16.20;;;8.80;;
43883;SDS011;29544;52.018;5.810;2023-04-06T12:56:19;17.13;;;8.57;;
43883;SDS011;29544;52.018;5.810;2023-04-06T12:58:47;14.13;;;7.70;;
43883;SDS011;29544;52.018;5.810;2023-04-06T13:01:13;12.30;;;6.07;;
43883;SDS011;29544;52.018;5.810;2023-04-06T13:03:39;7.90;;;4.90;;
43883;SDS011;29544;52.018;5.810;2023-04-06T13:08:30;11.68;;;5.85;;
43883;SDS011;29544;52.018;5.810;2023-04-06T13:10:56;8.57;;;4.67;;
43883;SDS011;29544;52.018;5.810;2023-04-06T13:13:22;10.50;;;4.50;;
43883;SDS011;29544;52.018;5.810;2023-04-06T13:15:49;6.32;;;3.65;;
43883;SDS011;29544;52.018;5.810;2023-04-06T13:18:15;7.30;;;4.10;;
43883;SDS011;29544;52.018;5.810;2023-04-06T13:20:41;8.03;;;4.37;;
43883;SDS011;29544;52.018;5.810;2023-04-06T13:23:07;7.63;;;4.47;;
43883;SDS011;29544;52.018;5.810;2023-04-06T13:25:32;6.07;;;3.67;;
43883;SDS011;29544;52.018;5.810;2023-04-06T13:27:58;8.23;;;3.87;;
43883;SDS011;29544;52.018;5.810;2023-04-06T13:30:24;8.10;;;3.92;;
43883;SDS011;29544;52.018;5.810;2023-04-06T13:32:50;7.37;;;3.50;;
43883;SDS011;29544;52.018;5.810;2023-04-06T13:35:15;6.30;;;2.85;;
43883;SDS011;29544;52.018;5.810;2023-04-06T13:37:41;5.28;;;2.58;;
43883;SDS011;29544;52.018;5.810;2023-04-06T13:40:07;7.13;;;3.03;;
43883;SDS011;29544;52.018;5.810;2023-04-06T13:42:33;5.60;;;3.05;;
43883;SDS011;29544;52.018;5.810;2023-04-06T13:45:00;5.32;;;2.70;;
43883;SDS011;29544;52.018;5.810;2023-04-06T13:47:26;4.03;;;2.33;;
43883;SDS011;29544;52.018;5.810;2023-04-06T13:49:52;5.05;;;2.42;;
43883;SDS011;29544;52.018;5.810;2023-04-06T13:52:19;6.43;;;2.30;;
43883;SDS011;29544;52.018;5.810;2023-04-06T13:54:45;4.50;;;2.55;;
43883;SDS011;29544;52.018;5.810;2023-04-06T13:57:11;4.97;;;2.00;;
43883;SDS011;29544;52.018;5.810;2023-04-06T13:59:37;5.80;;;2.20;;
43883;SDS011;29544;52.018;5.810;2023-04-06T14:02:05;4.50;;;2.10;;
43883;SDS011;29544;52.018;5.810;2023-04-06T14:04:32;4.35;;;1.83;;
43883;SDS011;29544;52.018;5.810;2023-04-06T14:06:58;4.57;;;1.58;;
43883;SDS011;29544;52.018;5.810;2023-04-06T14:09:24;2.47;;;1.38;;
43883;SDS011;29544;52.018;5.810;2023-04-06T14:11:49;3.67;;;1.50;;
43883;SDS011;29544;52.018;5.810;2023-04-06T14:14:15;3.93;;;1.73;;
43883;SDS011;29544;52.018;5.810;2023-04-06T14:16:41;2.92;;;1.50;;
43883;SDS011;29544;52.018;5.810;2023-04-06T14:19:09;2.97;;;1.60;;
43883;SDS011;29544;52.018;5.810;2023-04-06T14:21:36;3.50;;;1.65;;
43883;SDS011;29544;52.018;5.810;2023-04-06T14:24:04;4.88;;;1.88;;
43883;SDS011;29544;52.018;5.810;2023-04-06T14:28:56;4.25;;;1.48;;
43883;SDS011;29544;52.018;5.810;2023-04-06T14:33:49;4.55;;;1.23;;
43883;SDS011;29544;52.018;5.810;2023-04-06T14:36:14;3.57;;;1.40;;
43883;SDS011;29544;52.018;5.810;2023-04-06T14:38:40;5.23;;;2.00;;
43883;SDS011;29544;52.018;5.810;2023-04-06T14:41:06;3.20;;;1.40;;
43883;SDS011;29544;52.018;5.810;2023-04-06T14:43:33;4.22;;;1.30;;
43883;SDS011;29544;52.018;5.810;2023-04-06T14:46:01;4.53;;;1.63;;
43883;SDS011;29544;52.018;5.810;2023-04-06T14:48:27;3.25;;;1.30;;
43883;SDS011;29544;52.018;5.810;2023-04-06T14:50:56;2.42;;;1.23;;
43883;SDS011;29544;52.018;5.810;2023-04-06T14:53:22;1.88;;;1.27;;
43883;SDS011;29544;52.018;5.810;2023-04-06T14:55:48;3.17;;;1.52;;
43883;SDS011;29544;52.018;5.810;2023-04-06T14:58:16;2.67;;;1.20;;
43883;SDS011;29544;52.018;5.810;2023-04-06T15:00:42;2.60;;;1.27;;
43883;SDS011;29544;52.018;5.810;2023-04-06T15:03:07;2.13;;;1.30;;